Time;durP1;ratioP1;P1;durP2;ratioP2;P2;SDS_P1;SDS_P2;PMS_P1;PMS_P2;Temp;Humidity;BMP_temperature;BMP_pressure;BME280_temperature;BME280_humidity;BME280_pressure;Samples;Min_cycle;Max_cycle;Signal;HPM_P1;HPM_P2
2023/10/14 00:01:31;;;;;;;11.70;5.18;;;;;;;13.62;100.00;93521.34;5029200;28;20100;-61
2023/10/14 00:03:59;;;;;;;10.57;5.40;;;;;;;13.84;100.00;93517.88;5029304;28;20046;-61
2023/10/14 00:06:27;;;;;;;12.80;4.97;;;;;;;13.87;100.00;93514.25;5028104;28;20057;-61
2023/10/14 00:09:04;;;;;;;12.25;6.00;;;;;;;13.59;100.00;93500.22;5028974;28;20099;-61
2023/10/14 00:11:35;;;;;;;24.75;14.57;;;;;;;13.79;100.00;93500.69;5028108;28;20048;-61
2023/10/14 00:14:16;;;;;;;10.95;6.00;;;;;;;13.85;100.00;93505.66;5029081;28;20059;-61
2023/10/14 00:16:51;;;;;;;11.20;5.07;;;;;;;13.91;100.00;93496.34;5026617;28;21632;-61
2023/10/14 00:19:22;;;;;;;10.93;5.07;;;;;;;13.77;100.00;93503.13;5028637;28;20053;-61
2023/10/14 00:21:50;;;;;;;11.73;4.80;;;;;;;13.84;100.00;93502.09;4988325;28;1166486;-61
2023/10/14 00:24:28;;;;;;;11.65;5.18;;;;;;;13.68;100.00;93499.50;5029434;28;20057;-61
2023/10/14 00:27:02;;;;;;;8.15;4.97;;;;;;;13.85;100.00;93508.41;5030215;28;20067;-61
2023/10/14 00:29:29;;;;;;;11.77;5.03;;;;;;;13.91;100.00;93504.63;5028650;28;20037;-60
2023/10/14 00:31:58;;;;;;;10.73;4.97;;;;;;;13.96;100.00;93495.00;5029708;28;20048;-61
2023/10/14 00:34:26;;;;;;;10.15;5.15;;;;;;;13.99;100.00;93508.69;5029142;28;20060;-62
2023/10/14 00:36:58;;;;;;;7.95;4.43;;;;;;;13.99;100.00;93516.19;5029470;28;20049;-61
2023/10/14 00:39:31;;;;;;;11.82;4.80;;;;;;;14.20;100.00;93511.91;5029248;28;20045;-61
2023/10/14 00:41:58;;;;;;;11.57;4.95;;;;;;;14.84;100.00;93496.97;5029254;28;20103;-62
2023/10/14 00:44:26;;;;;;;9.33;4.20;;;;;;;15.70;100.00;93496.31;5028584;28;20490;-63
2023/10/14 00:46:55;;;;;;;8.50;4.20;;;;;;;16.11;100.00;93486.66;5029304;28;20060;-61
2023/10/14 00:49:34;;;;;;;8.02;4.20;;;;;;;16.48;100.00;93483.09;5027702;28;20374;-61
2023/10/14 00:52:19;;;;;;;8.65;4.32;;;;;;;16.40;100.00;93487.41;5029502;28;20122;-61
2023/10/14 00:57:20;;;;;;;12.07;4.37;;;;;;;16.67;100.00;93472.75;5028726;28;20045;-61
2023/10/14 00:59:53;;;;;;;11.57;4.10;;;;;;;16.62;100.00;93490.00;5028585;28;20526;-61
2023/10/14 01:02:30;;;;;;;8.75;4.55;;;;;;;16.93;100.00;93490.56;5028808;28;20053;-62
2023/10/14 01:05:06;;;;;;;9.57;4.90;;;;;;;16.92;100.00;93491.03;5029128;28;20405;-61
2023/10/14 01:07:33;;;;;;;8.60;4.45;;;;;;;16.82;100.00;93495.84;5027450;28;20056;-61
2023/10/14 01:10:01;;;;;;;11.67;5.07;;;;;;;16.88;100.00;93482.88;5028542;28;20421;-61
2023/10/14 01:12:39;;;;;;;11.30;5.72;;;;;;;16.91;100.00;93487.50;5028068;28;20045;-62
2023/10/14 01:15:20;;;;;;;11.55;5.00;;;;;;;17.20;100.00;93502.78;5028896;28;20053;-61
2023/10/14 01:17:49;;;;;;;12.82;5.38;;;;;;;17.45;100.00;93507.13;5027653;28;20574;-62
2023/10/14 01:23:06;;;;;;;9.20;5.30;;;;;;;17.14;100.00;93515.75;5028121;28;20490;-61
2023/10/14 01:25:40;;;;;;;10.07;5.80;;;;;;;16.74;100.00;93528.63;5027857;28;20410;-62
2023/10/14 01:28:15;;;;;;;10.15;6.20;;;;;;;16.58;100.00;93526.19;5028375;28;20076;-61
2023/10/14 01:31:06;;;;;;;10.57;6.05;;;;;;;16.42;100.00;93537.56;5028554;28;20041;-61
2023/10/14 01:33:35;;;;;;;10.70;6.03;;;;;;;16.32;100.00;93539.59;5027732;28;20041;-62
2023/10/14 01:36:04;;;;;;;11.63;5.83;;;;;;;16.31;100.00;93532.50;5028732;28;20201;-61
2023/10/14 01:38:31;;;;;;;10.30;6.22;;;;;;;16.32;100.00;93532.06;5027898;28;20045;-61
2023/10/14 01:41:03;;;;;;;14.43;6.53;;;;;;;16.22;100.00;93513.91;5028627;28;20046;-61
2023/10/14 01:43:31;;;;;;;11.00;6.63;;;;;;;16.08;100.00;93514.53;5028044;28;20041;-63
2023/10/14 01:48:33;;;;;;;17.80;10.70;;;;;;;15.87;100.00;93519.72;5027919;28;20475;-61
2023/10/14 01:51:00;;;;;;;13.15;7.13;;;;;;;15.72;100.00;93525.09;5028599;28;20053;-61
2023/10/14 01:53:31;;;;;;;12.15;6.85;;;;;;;15.73;100.00;93520.31;5027827;28;20111;-61
2023/10/14 01:56:01;;;;;;;11.63;6.68;;;;;;;15.68;100.00;93509.84;5028626;28;20053;-61
2023/10/14 01:58:32;;;;;;;13.57;6.43;;;;;;;15.57;100.00;93500.00;5026519;28;20041;-62
2023/10/14 02:03:41;;;;;;;12.05;6.40;;;;;;;15.54;100.00;93500.91;5027645;28;20951;-63
2023/10/14 02:06:26;;;;;;;11.93;6.47;;;;;;;15.49;100.00;93479.41;5027038;28;20046;-61
2023/10/14 02:08:55;;;;;;;12.00;6.18;;;;;;;15.55;100.00;93455.44;5028864;28;20053;-61
2023/10/14 02:11:32;;;;;;;12.20;6.60;;;;;;;15.51;100.00;93429.94;5027769;28;20413;-62
2023/10/14 02:14:07;;;;;;;15.67;6.60;;;;;;;15.38;100.00;93460.47;5028725;28;20054;-60
2023/10/14 02:16:41;;;;;;;11.77;6.65;;;;;;;15.26;100.00;93461.34;5025211;28;21731;-60
2023/10/14 02:19:20;;;;;;;10.90;6.28;;;;;;;15.27;100.00;93471.19;5028216;28;20049;-60
2023/10/14 02:21:57;;;;;;;11.15;6.40;;;;;;;15.28;100.00;93472.72;5028080;28;20347;-60
2023/10/14 02:24:27;;;;;;;9.25;5.55;;;;;;;15.43;100.00;93464.59;5027757;28;20045;-61
2023/10/14 02:26:57;;;;;;;9.57;5.80;;;;;;;15.43;100.00;93452.78;5028341;28;20045;-60
2023/10/14 02:29:24;;;;;;;9.45;5.70;;;;;;;15.53;100.00;93466.19;5027120;28;20050;-60
2023/10/14 02:31:51;;;;;;;13.23;6.05;;;;;;;15.56;100.00;93456.97;5028130;28;20049;-60
2023/10/14 02:34:18;;;;;;;9.48;5.90;;;;;;;15.57;100.00;93438.34;5027658;28;20406;-60
2023/10/14 02:36:48;;;;;;;9.88;6.45;;;;;;;15.61;100.00;93452.03;5026801;28;20085;-60
2023/10/14 02:39:25;;;;;;;10.57;6.00;;;;;;;15.57;100.00;93455.75;5028110;28;20111;-60
2023/10/14 02:41:59;;;;;;;12.10;6.63;;;;;;;15.62;100.00;93450.81;5028233;28;20049;-60
2023/10/14 02:44:32;;;;;;;12.80;6.45;;;;;;;15.62;100.00;93451.59;5027866;28;20045;-60
2023/10/14 02:47:08;;;;;;;11.73;6.50;;;;;;;15.68;100.00;93462.81;5026697;28;20064;-60
2023/10/14 02:49:37;;;;;;;11.88;6.53;;;;;;;15.70;100.00;93474.97;5026986;28;20630;-60
2023/10/14 02:52:09;;;;;;;9.93;6.10;;;;;;;15.76;100.00;93464.84;5027989;28;20054;-60
2023/10/14 02:54:55;;;;;;;11.43;6.30;;;;;;;15.75;100.00;93457.78;5026948;28;20071;-60
2023/10/14 02:59:49;;;;;;;12.52;7.13;;;;;;;15.76;100.00;93445.47;5024084;28;20044;-60
2023/10/14 03:02:25;;;;;;;11.10;6.60;;;;;;;15.76;100.00;93458.56;5027258;28;20064;-61
2023/10/14 03:07:29;;;;;;;11.30;6.15;;;;;;;15.77;100.00;93452.56;5027644;28;20049;-60
2023/10/14 03:10:10;;;;;;;10.48;6.18;;;;;;;15.77;100.00;93466.41;5027250;28;20499;-60
2023/10/14 03:12:39;;;;;;;11.93;6.20;;;;;;;15.78;100.00;93464.38;5026810;28;20787;-60
2023/10/14 03:15:19;;;;;;;11.00;6.07;;;;;;;15.80;100.00;93463.94;5027771;28;20045;-60
2023/10/14 03:18:01;;;;;;;11.07;6.50;;;;;;;15.80;100.00;93470.22;5026563;28;20290;-60
2023/10/14 03:22:59;;;;;;;10.60;6.18;;;;;;;15.75;100.00;93446.72;5027287;28;20401;-60
2023/10/14 03:25:29;;;;;;;10.68;6.35;;;;;;;15.73;100.00;93471.28;5027411;28;20448;-61
2023/10/14 03:28:07;;;;;;;10.82;6.07;;;;;;;15.72;100.00;93478.06;5027758;28;20046;-60
2023/10/14 03:30:38;;;;;;;12.23;6.30;;;;;;;15.74;100.00;93485.91;5019431;28;21761;-60
2023/10/14 03:33:09;;;;;;;11.25;6.57;;;;;;;15.77;100.00;93484.97;5030091;28;20051;-60
2023/10/14 03:35:37;;;;;;;10.30;6.32;;;;;;;15.70;100.00;93477.72;5030460;28;20172;-61
2023/10/14 03:41:03;;;;;;;12.63;6.93;;;;;;;15.73;100.00;93446.38;4999695;28;21261;-60
2023/10/14 03:43:41;;;;;;;11.23;6.40;;;;;;;15.75;100.00;93452.25;5030467;28;20034;-60
2023/10/14 03:46:11;;;;;;;10.70;6.57;;;;;;;15.75;100.00;93468.06;5030880;28;20272;-60
2023/10/14 03:48:46;;;;;;;11.65;6.82;;;;;;;15.72;100.00;93466.19;5031389;28;20056;-60
2023/10/14 03:51:27;;;;;;;14.30;7.00;;;;;;;15.64;100.00;93468.50;5030581;28;20053;-60
2023/10/14 03:54:07;;;;;;;13.65;6.63;;;;;;;15.67;100.00;93472.34;5031537;28;20490;-61
2023/10/14 03:56:35;;;;;;;11.13;6.90;;;;;;;15.68;100.00;93471.88;5029944;28;21748;-60
2023/10/14 03:59:03;;;;;;;11.60;6.80;;;;;;;15.67;100.00;93462.03;5028952;28;20490;-60
2023/10/14 04:04:17;;;;;;;11.90;6.63;;;;;;;15.66;100.00;93459.75;5031000;28;20053;-60
2023/10/14 04:09:39;;;;;;;12.13;6.17;;;;;;;15.60;100.00;93458.81;5030331;28;20497;-61
2023/10/14 04:12:29;;;;;;;12.48;6.78;;;;;;;15.63;100.00;93463.41;5031032;28;20509;-60
2023/10/14 04:17:40;;;;;;;10.90;6.38;;;;;;;15.48;100.00;93454.97;5029893;28;20734;-60
2023/10/14 04:28:17;;;;;;;13.18;6.35;;;;;;;15.39;100.00;93469.50;5029643;28;21722;-60
2023/10/14 04:30:44;;;;;;;12.75;5.88;;;;;;;15.33;100.00;93463.84;5025507;28;20075;-60
2023/10/14 04:35:57;;;;;;;12.33;6.07;;;;;;;15.26;100.00;93471.66;5030293;28;20038;-61
2023/10/14 04:38:37;;;;;;;11.32;6.00;;;;;;;15.28;100.00;93483.03;5029699;28;20490;-60
2023/10/14 04:41:12;;;;;;;12.30;6.40;;;;;;;15.23;100.00;93487.16;5029944;28;20056;-61
2023/10/14 04:46:32;;;;;;;14.05;7.55;;;;;;;14.58;100.00;93508.19;5029106;28;20059;-61
2023/10/14 04:49:01;;;;;;;15.17;6.80;;;;;;;14.42;100.00;93516.66;5029836;28;20118;-60
2023/10/14 04:51:37;;;;;;;14.73;6.95;;;;;;;14.36;100.00;93506.19;5029323;28;20087;-60
2023/10/14 04:54:09;;;;;;;13.20;6.88;;;;;;;14.30;100.00;93501.69;5028251;28;20456;-60
2023/10/14 04:56:36;;;;;;;11.70;6.55;;;;;;;14.26;100.00;93490.00;5028772;28;20042;-60
2023/10/14 04:59:05;;;;;;;12.63;7.07;;;;;;;14.26;100.00;93501.81;5029762;28;20037;-60
2023/10/14 05:01:32;;;;;;;17.47;6.77;;;;;;;14.26;100.00;93492.78;5029562;28;20049;-60
2023/10/14 05:03:59;;;;;;;13.68;6.70;;;;;;;14.28;100.00;93499.38;5029557;28;20049;-60
2023/10/14 05:06:30;;;;;;;13.98;7.07;;;;;;;14.24;100.00;93490.47;5028918;28;20200;-61
2023/10/14 05:08:57;;;;;;;13.90;6.55;;;;;;;14.25;100.00;93485.72;5029356;28;20049;-60
2023/10/14 05:11:25;;;;;;;15.93;8.35;;;;;;;14.24;100.00;93495.97;5028859;28;20049;-60
2023/10/14 05:14:09;;;;;;;20.33;11.00;;;;;;;14.26;100.00;93499.06;5029220;28;20049;-60
2023/10/14 05:19:24;;;;;;;19.42;10.20;;;;;;;14.26;100.00;93493.53;5028811;28;20555;-60
2023/10/14 05:22:37;;;;;;;17.40;8.18;;;;;;;14.28;100.00;93493.84;5029071;28;20050;-59
2023/10/14 05:24:52;;;;;;;13.23;6.72;;;;;;;14.28;100.00;93487.56;5026474;28;21506;-60
2023/10/14 05:27:22;;;;;;;22.03;11.67;;;;;;;14.31;100.00;93489.44;5028821;28;20057;-61
2023/10/14 05:29:52;;;;;;;20.45;10.95;;;;;;;14.35;100.00;93501.88;5028946;28;20047;-60
2023/10/14 05:32:30;;;;;;;17.67;10.35;;;;;;;14.32;100.00;93502.00;5028555;28;20041;-60
2023/10/14 05:34:59;;;;;;;25.00;13.13;;;;;;;14.30;100.00;93507.97;5029017;28;20110;-60
2023/10/14 05:37:26;;;;;;;24.90;13.75;;;;;;;14.29;100.00;93503.69;5028799;28;20490;-59
2023/10/14 05:39:55;;;;;;;48.73;25.53;;;;;;;14.27;100.00;93506.13;5029122;28;20046;-60
2023/10/14 05:42:22;;;;;;;23.60;13.30;;;;;;;14.28;100.00;93506.91;5028326;28;20059;-60
2023/10/14 05:45:01;;;;;;;17.00;9.05;;;;;;;14.29;100.00;93523.00;5028842;28;20410;-60
2023/10/14 05:47:28;;;;;;;85.07;48.10;;;;;;;14.32;100.00;93515.81;5028325;28;20046;-60
2023/10/14 05:49:55;;;;;;;14.73;8.07;;;;;;;14.32;100.00;93510.28;5028574;28;20068;-60
2023/10/14 05:52:24;;;;;;;16.87;9.43;;;;;;;14.32;100.00;93516.56;5028115;28;20041;-61
2023/10/14 05:54:51;;;;;;;13.48;6.47;;;;;;;14.35;100.00;93509.41;5028225;28;20048;-60
2023/10/14 05:57:20;;;;;;;18.48;7.47;;;;;;;14.42;100.00;93511.91;5028017;28;20056;-60
2023/10/14 05:59:48;;;;;;;46.17;19.08;;;;;;;14.42;100.00;93513.91;5028567;28;20391;-60
2023/10/14 06:02:15;;;;;;;13.32;6.90;;;;;;;14.41;100.00;93526.16;5011374;28;20052;-61
2023/10/14 06:04:42;;;;;;;9.53;5.80;;;;;;;14.37;100.00;93529.06;5027490;28;20037;-60
2023/10/14 06:07:12;;;;;;;11.63;5.82;;;;;;;14.31;100.00;93506.00;5028296;28;20047;-60
2023/10/14 06:09:40;;;;;;;9.52;5.40;;;;;;;14.37;100.00;93509.72;5028383;28;20052;-61
2023/10/14 06:12:12;;;;;;;10.95;5.30;;;;;;;14.42;100.00;93516.66;5028137;28;20523;-63
2023/10/14 06:14:41;;;;;;;14.15;5.70;;;;;;;14.33;100.00;93509.84;5027494;28;20805;-61
2023/10/14 06:17:08;;;;;;;10.27;5.23;;;;;;;14.31;100.00;93511.53;5027854;28;20048;-61
2023/10/14 06:19:36;;;;;;;12.25;5.60;;;;;;;14.27;100.00;93510.88;5027543;28;20045;-61
2023/10/14 06:22:03;;;;;;;10.30;5.80;;;;;;;14.27;100.00;93508.91;5028004;28;20291;-61
2023/10/14 06:24:33;;;;;;;9.43;5.38;;;;;;;14.31;100.00;93514.28;5028137;28;20045;-61
2023/10/14 06:27:09;;;;;;;12.32;5.90;;;;;;;14.34;100.00;93525.19;5028514;28;20405;-61
2023/10/14 06:29:37;;;;;;;10.17;4.83;;;;;;;14.35;100.00;93526.72;5027455;28;20138;-61
2023/10/14 06:32:04;;;;;;;12.00;5.00;;;;;;;14.33;100.00;93529.19;5027996;28;20041;-60
2023/10/14 06:34:47;;;;;;;11.68;5.85;;;;;;;14.29;100.00;93517.50;5027356;28;20106;-61
2023/10/14 06:37:14;;;;;;;10.10;5.43;;;;;;;14.20;100.00;93522.94;5027682;28;20049;-61
2023/10/14 06:39:42;;;;;;;11.48;5.47;;;;;;;14.14;100.00;93536.53;5027985;28;20043;-61
2023/10/14 06:42:11;;;;;;;11.97;6.30;;;;;;;14.16;100.00;93533.34;5028008;28;20464;-62
2023/10/14 06:44:45;;;;;;;10.93;5.47;;;;;;;14.17;100.00;93532.13;5015299;28;20484;-61
2023/10/14 06:47:13;;;;;;;31.80;20.35;;;;;;;14.18;100.00;93542.72;5026498;28;20046;-61
2023/10/14 06:49:41;;;;;;;11.50;6.25;;;;;;;14.34;100.00;93549.25;5028233;28;20037;-61
2023/10/14 06:52:11;;;;;;;17.45;6.30;;;;;;;14.43;100.00;93554.06;5027405;28;20033;-61
2023/10/14 06:54:41;;;;;;;13.00;6.17;;;;;;;14.59;100.00;93553.94;5027659;28;20043;-61
2023/10/14 06:57:08;;;;;;;11.05;6.03;;;;;;;14.61;100.00;93545.97;5027455;28;20045;-61
2023/10/14 06:59:37;;;;;;;12.75;6.00;;;;;;;14.69;100.00;93566.56;5028173;28;20049;-61
2023/10/14 07:02:05;;;;;;;14.50;6.13;;;;;;;14.82;100.00;93571.25;5024945;28;20421;-61
2023/10/14 07:04:40;;;;;;;10.45;5.68;;;;;;;15.04;100.00;93565.69;5026260;28;21144;-61
2023/10/14 07:07:08;;;;;;;14.90;6.40;;;;;;;15.60;100.00;93558.38;5028252;28;20049;-61
2023/10/14 07:09:37;;;;;;;12.23;6.13;;;;;;;15.79;100.00;93562.75;5031290;28;20102;-61
2023/10/14 07:12:13;;;;;;;12.80;6.47;;;;;;;16.00;100.00;93565.84;5031235;28;20053;-61
2023/10/14 07:14:44;;;;;;;11.38;6.30;;;;;;;15.93;100.00;93564.94;5030699;28;20652;-61
2023/10/14 07:17:17;;;;;;;11.60;6.05;;;;;;;15.99;100.00;93565.09;5030651;28;20045;-61
2023/10/14 07:19:46;;;;;;;12.13;6.63;;;;;;;15.81;100.00;93568.59;5031182;28;20048;-61
2023/10/14 07:22:18;;;;;;;15.68;6.45;;;;;;;16.02;100.00;93569.72;5029775;28;20045;-60
2023/10/14 07:24:45;;;;;;;13.93;6.70;;;;;;;18.19;100.00;93567.81;5030949;28;20041;-60
2023/10/14 07:27:13;;;;;;;14.48;6.85;;;;;;;18.36;100.00;93566.09;5029931;28;20041;-62
2023/10/14 07:29:43;;;;;;;14.63;7.00;;;;;;;16.82;100.00;93578.19;5030941;28;20056;-61
2023/10/14 07:32:10;;;;;;;14.07;7.00;;;;;;;15.98;100.00;93589.25;5030193;28;20049;-60
2023/10/14 07:34:37;;;;;;;11.98;6.93;;;;;;;15.63;100.00;93585.13;5031198;28;20042;-60
2023/10/14 07:37:04;;;;;;;11.45;6.93;;;;;;;15.29;100.00;93597.88;5030542;28;20049;-61
2023/10/14 07:39:32;;;;;;;13.85;7.10;;;;;;;15.04;100.00;93604.38;5030213;28;20083;-60
2023/10/14 07:41:58;;;;;;;12.35;6.70;;;;;;;15.00;100.00;93601.75;5030593;28;20049;-60
2023/10/14 07:44:25;;;;;;;13.90;6.93;;;;;;;15.11;100.00;93607.66;5028592;28;20054;-59
2023/10/14 07:46:54;;;;;;;17.42;6.90;;;;;;;15.31;100.00;93606.50;5030429;28;20400;-59
2023/10/14 07:49:21;;;;;;;15.30;7.63;;;;;;;15.66;100.00;93612.66;5030109;28;20042;-59
2023/10/14 07:51:52;;;;;;;13.98;6.90;;;;;;;15.74;100.00;93605.63;5030369;28;20410;-60
2023/10/14 07:54:21;;;;;;;15.50;7.00;;;;;;;15.54;100.00;93619.06;5029559;28;20038;-59
2023/10/14 07:56:48;;;;;;;12.57;6.77;;;;;;;15.62;100.00;93609.25;5030407;28;20395;-60
2023/10/14 07:59:16;;;;;;;14.30;6.68;;;;;;;15.75;100.00;93603.63;5029649;28;20042;-60
2023/10/14 08:01:45;;;;;;;14.30;6.55;;;;;;;16.88;100.00;93599.31;5030208;28;20479;-60
2023/10/14 08:04:15;;;;;;;13.32;6.22;;;;;;;18.62;100.00;93596.19;5029786;28;20049;-60
2023/10/14 08:06:43;;;;;;;9.77;5.82;;;;;;;20.78;100.00;93599.03;5029238;28;20439;-61
2023/10/14 08:09:28;;;;;;;9.73;5.90;;;;;;;22.33;100.00;93601.38;5028838;28;20049;-61
2023/10/14 08:11:56;;;;;;;11.40;5.80;;;;;;;21.27;100.00;93605.63;5029636;28;20042;-60
2023/10/14 08:14:23;;;;;;;13.63;7.47;;;;;;;19.52;100.00;93606.16;5029655;28;20110;-62
2023/10/14 08:16:50;;;;;;;12.75;6.22;;;;;;;18.14;100.00;93605.31;5014653;28;20041;-61
2023/10/14 08:19:21;;;;;;;15.85;6.50;;;;;;;17.75;100.00;93604.41;5026788;28;20485;-61
2023/10/14 08:21:50;;;;;;;12.90;6.20;;;;;;;17.28;100.00;93598.25;5028603;28;20041;-61
2023/10/14 08:24:18;;;;;;;11.07;6.35;;;;;;;17.17;100.00;93598.75;5028250;28;20041;-61
2023/10/14 08:26:46;;;;;;;14.00;6.70;;;;;;;16.94;100.00;93608.53;5030476;28;20033;-61
2023/10/14 08:29:13;;;;;;;13.27;6.50;;;;;;;17.07;100.00;93602.03;5029594;28;20486;-60
2023/10/14 08:31:42;;;;;;;12.73;6.15;;;;;;;17.01;100.00;93609.44;5030498;28;20038;-62
2023/10/14 08:34:09;;;;;;;10.70;5.90;;;;;;;16.76;100.00;93617.59;5017195;28;20053;-61
2023/10/14 08:36:42;;;;;;;13.95;5.85;;;;;;;16.97;100.00;93618.66;5029649;28;20050;-61
2023/10/14 08:39:09;;;;;;;13.65;6.10;;;;;;;16.81;100.00;93616.22;5029930;28;20041;-60
2023/10/14 08:41:37;;;;;;;15.48;6.15;;;;;;;16.76;100.00;93614.03;5028568;28;20049;-61
2023/10/14 08:44:08;;;;;;;12.45;5.90;;;;;;;16.76;100.00;93608.50;5029850;28;20053;-60
2023/10/14 08:46:39;;;;;;;13.87;5.90;;;;;;;16.62;100.00;93611.88;5028356;28;21641;-60
2023/10/14 08:49:08;;;;;;;12.45;5.60;;;;;;;16.54;100.00;93601.13;5015830;28;20154;-61
2023/10/14 08:51:39;;;;;;;11.88;5.60;;;;;;;16.46;100.00;93613.75;5029186;28;20674;-61
2023/10/14 08:54:23;;;;;;;10.77;5.43;;;;;;;16.47;100.00;93611.75;5029649;28;20056;-60
2023/10/14 08:56:51;;;;;;;14.07;5.82;;;;;;;16.26;100.00;93611.44;5030056;28;20092;-60
2023/10/14 08:59:18;;;;;;;11.23;5.43;;;;;;;16.30;100.00;93612.06;5029204;28;20049;-61
2023/10/14 09:01:51;;;;;;;13.45;5.30;;;;;;;16.44;100.00;93629.28;5029623;28;20500;-61
2023/10/14 09:04:30;;;;;;;13.27;5.47;;;;;;;16.60;100.00;93628.22;5019672;28;20077;-61
2023/10/14 09:07:12;;;;;;;11.27;5.30;;;;;;;16.29;100.00;93618.81;5029978;28;20049;-62
2023/10/14 09:09:39;;;;;;;11.15;5.32;;;;;;;16.04;100.00;93628.16;5017740;28;20913;-60
2023/10/14 09:12:10;;;;;;;11.13;5.00;;;;;;;16.00;100.00;93632.28;5029251;28;20046;-61
2023/10/14 09:14:39;;;;;;;11.93;5.40;;;;;;;15.73;100.00;93634.50;5028590;28;20848;-60
2023/10/14 09:17:09;;;;;;;12.10;5.22;;;;;;;15.46;100.00;93640.69;5028036;28;20049;-60
2023/10/14 09:19:48;;;;;;;10.05;4.90;;;;;;;15.47;100.00;93631.16;5028651;28;20469;-60
2023/10/14 09:22:26;;;;;;;10.32;5.13;;;;;;;15.31;100.00;93629.41;5026732;28;20383;-61
2023/10/14 09:24:58;;;;;;;10.40;4.47;;;;;;;15.40;100.00;93628.69;5029396;28;20509;-60
2023/10/14 09:27:26;;;;;;;8.07;4.28;;;;;;;15.43;100.00;93627.75;5028183;28;20395;-60
2023/10/14 09:29:57;;;;;;;8.43;3.63;;;;;;;15.42;100.00;93629.00;5028097;28;20345;-60
2023/10/14 09:32:24;;;;;;;6.97;3.60;;;;;;;15.44;100.00;93629.31;5028137;28;20052;-59
2023/10/14 09:34:52;;;;;;;8.77;3.88;;;;;;;15.38;100.00;93631.88;5028545;28;20482;-60
2023/10/14 09:37:21;;;;;;;7.27;3.80;;;;;;;15.48;100.00;93626.41;5028071;28;20047;-59
2023/10/14 09:39:51;;;;;;;7.75;3.92;;;;;;;15.41;100.00;93624.66;5028271;28;20049;-60
2023/10/14 09:42:21;;;;;;;8.73;4.00;;;;;;;15.44;100.00;93631.31;5027287;28;20045;-60
2023/10/14 09:44:49;;;;;;;9.68;4.22;;;;;;;15.41;100.00;93629.44;5028840;28;20047;-60
2023/10/14 09:47:22;;;;;;;10.18;4.70;;;;;;;15.32;100.00;93641.22;5027732;28;20049;-60
2023/10/14 09:49:50;;;;;;;10.47;5.20;;;;;;;15.38;100.00;93633.88;5028409;28;20049;-60
2023/10/14 09:52:18;;;;;;;11.25;4.97;;;;;;;15.61;100.00;93626.28;5027141;28;20479;-60
2023/10/14 09:54:49;;;;;;;11.77;5.30;;;;;;;15.58;100.00;93631.50;5028024;28;20049;-61
2023/10/14 09:57:17;;;;;;;9.77;4.97;;;;;;;15.71;100.00;93625.88;5027695;28;20095;-60
2023/10/14 09:59:46;;;;;;;11.60;4.93;;;;;;;15.45;100.00;93630.84;5027981;28;20123;-60
2023/10/14 10:02:16;;;;;;;12.53;5.20;;;;;;;15.27;100.00;93633.50;5027379;28;20075;-60
2023/10/14 10:04:45;;;;;;;10.55;5.22;;;;;;;15.21;100.00;93627.03;5028239;28;20037;-61
2023/10/14 10:07:47;;;;;;;11.48;4.93;;;;;;;15.36;100.00;93634.34;5026305;28;20487;-61
2023/10/14 10:10:25;;;;;;;9.80;4.60;;;;;;;15.17;100.00;93629.94;4993673;28;20391;-62
2023/10/14 10:12:55;;;;;;;9.48;4.55;;;;;;;15.13;100.00;93626.53;5028020;28;20045;-60
2023/10/14 10:15:25;;;;;;;9.67;4.50;;;;;;;15.25;100.00;93635.97;5026761;28;20055;-60
2023/10/14 10:18:06;;;;;;;10.80;4.13;;;;;;;15.33;100.00;93629.72;5028021;28;20051;-61
2023/10/14 10:20:36;;;;;;;8.68;3.80;;;;;;;15.12;100.00;93634.06;5027092;28;20110;-61
2023/10/14 10:23:06;;;;;;;8.00;3.75;;;;;;;15.04;100.00;93629.25;5027550;28;20741;-60
2023/10/14 10:25:36;;;;;;;7.60;3.85;;;;;;;15.26;100.00;93638.28;5014109;28;20641;-61
2023/10/14 10:28:25;;;;;;;6.07;3.37;;;;;;;15.62;100.00;93630.63;5027728;28;20472;-60
2023/10/14 10:31:16;;;;;;;7.85;3.95;;;;;;;15.69;100.00;93631.09;5027171;28;20720;-62
2023/10/14 10:34:03;;;;;;;6.90;3.70;;;;;;;15.65;100.00;93627.69;5026848;28;20445;-60
2023/10/14 10:36:32;;;;;;;6.80;3.58;;;;;;;15.93;100.00;93614.75;5027131;28;20502;-60
2023/10/14 10:39:15;;;;;;;7.15;3.58;;;;;;;15.76;100.00;93627.31;5025609;28;20338;-60
2023/10/14 10:41:43;;;;;;;8.03;3.57;;;;;;;16.04;100.00;93606.00;5028895;28;21321;-61
2023/10/14 10:44:11;;;;;;;8.93;3.15;;;;;;;16.05;100.00;93609.53;5030062;28;20076;-62
2023/10/14 10:46:46;;;;;;;7.07;3.60;;;;;;;15.91;100.00;93599.81;5031692;28;20048;-61
2023/10/14 10:49:14;;;;;;;6.90;3.20;;;;;;;16.15;100.00;93600.03;5031343;28;20095;-61
2023/10/14 10:51:47;;;;;;;6.70;3.30;;;;;;;16.30;100.00;93598.22;5031742;28;20089;-61
2023/10/14 10:54:16;;;;;;;6.03;3.00;;;;;;;16.68;100.00;93596.19;5031157;28;20041;-60
2023/10/14 10:56:43;;;;;;;7.03;3.08;;;;;;;16.67;100.00;93602.97;5031636;28;20066;-61
2023/10/14 10:59:30;;;;;;;5.75;2.90;;;;;;;16.88;100.00;93598.50;5029977;28;20440;-60
2023/10/14 11:01:58;;;;;;;7.53;5.10;;;;;;;17.03;100.00;93596.63;5031362;28;20395;-61
2023/10/14 11:04:25;;;;;;;6.03;2.83;;;;;;;16.58;100.00;93584.38;5029741;28;20049;-60
2023/10/14 11:06:52;;;;;;;5.87;2.70;;;;;;;16.50;100.00;93575.59;5031636;28;20559;-60
2023/10/14 11:09:19;;;;;;;5.57;2.40;;;;;;;17.09;100.00;93569.06;5030322;28;20053;-61
2023/10/14 11:11:46;;;;;;;5.15;2.08;;;;;;;19.43;100.00;93574.88;5031097;28;20095;-61
2023/10/14 11:14:17;;;;;;;4.30;1.80;;;;;;;21.42;100.00;93565.66;5030342;28;20041;-62
2023/10/14 11:16:48;;;;;;;3.92;2.00;;;;;;;20.60;100.00;93572.22;5031181;28;20050;-62
2023/10/14 11:19:15;;;;;;;4.47;1.90;;;;;;;19.72;100.00;93560.16;5030843;28;20098;-61
2023/10/14 11:21:42;;;;;;;4.00;1.85;;;;;;;19.04;100.00;93555.53;5030819;28;20676;-61
2023/10/14 11:24:09;;;;;;;4.18;1.80;;;;;;;18.38;100.00;93559.31;5028651;28;20052;-61
2023/10/14 11:26:37;;;;;;;3.75;1.85;;;;;;;18.45;100.00;93550.59;5027025;28;20038;-61
2023/10/14 11:29:06;;;;;;;3.80;2.00;;;;;;;20.85;100.00;93547.66;5031257;28;20042;-64
2023/10/14 11:31:34;;;;;;;3.73;1.80;;;;;;;20.70;100.00;93542.91;5030848;28;21193;-62
2023/10/14 11:34:01;;;;;;;3.53;1.80;;;;;;;20.57;100.00;93544.53;5029846;28;20045;-61
2023/10/14 11:36:28;;;;;;;3.83;1.70;;;;;;;20.67;100.00;93538.34;5030382;28;20072;-61
2023/10/14 11:38:58;;;;;;;3.85;1.80;;;;;;;19.28;100.00;93544.28;5030856;28;20046;-62
2023/10/14 11:41:26;;;;;;;4.07;1.90;;;;;;;19.41;100.00;93544.72;5030393;28;20041;-61
2023/10/14 11:43:53;;;;;;;5.13;1.97;;;;;;;18.69;100.00;93531.09;5030848;28;20050;-62
2023/10/14 11:46:20;;;;;;;3.60;2.00;;;;;;;17.94;100.00;93535.72;5030329;28;20041;-62
2023/10/14 11:48:48;;;;;;;4.38;2.00;;;;;;;17.74;100.00;93531.47;5030666;28;20053;-60
2023/10/14 11:51:19;;;;;;;4.47;2.15;;;;;;;17.82;100.00;93540.22;5029835;28;20103;-61
2023/10/14 11:53:52;;;;;;;6.25;2.10;;;;;;;17.42;100.00;93530.25;5029823;28;20045;-62
2023/10/14 11:56:20;;;;;;;4.83;2.50;;;;;;;17.67;100.00;93528.31;5029931;28;20068;-62
2023/10/14 11:58:49;;;;;;;5.13;2.58;;;;;;;17.46;100.00;93522.53;5030958;28;20063;-64
2023/10/14 12:01:17;;;;;;;4.10;2.20;;;;;;;17.30;100.00;93526.44;5029956;28;20041;-61
2023/10/14 12:03:44;;;;;;;3.55;2.00;;;;;;;17.63;100.00;93533.25;5030739;28;20045;-66
2023/10/14 12:06:12;;;;;;;3.90;2.20;;;;;;;17.75;100.00;93533.03;5016858;28;20486;-62
2023/10/14 12:08:39;;;;;;;4.47;2.00;;;;;;;17.87;100.00;93545.16;5030399;28;20042;-61
2023/10/14 12:11:08;;;;;;;4.03;2.17;;;;;;;17.50;100.00;93539.78;5030458;28;20474;-64
2023/10/14 12:13:36;;;;;;;4.28;2.20;;;;;;;17.60;100.00;93537.72;5029406;28;20662;-62
2023/10/14 12:16:16;;;;;;;4.97;1.90;;;;;;;17.37;100.00;93561.41;5029476;28;20335;-62
2023/10/14 12:18:45;;;;;;;3.25;1.30;;;;;;;16.86;100.00;93560.19;5030384;28;20041;-62
2023/10/14 12:21:13;;;;;;;4.00;0.97;;;;;;;16.13;100.00;93589.41;5029868;28;20049;-61
2023/10/14 12:23:40;;;;;;;1.88;0.80;;;;;;;15.26;100.00;93609.88;5029987;28;20061;-62